Time;durP1;ratioP1;P1;durP2;ratioP2;P2;SDS_P1;SDS_P2;PMS_P1;PMS_P2;Temp;Humidity;BMP_temperature;BMP_pressure;BME280_temperature;BME280_humidity;BME280_pressure;Samples;Min_cycle;Max_cycle;Signal;HPM_P1;HPM_P2
2022/03/28 00:02:15;;;;;;;5.22;4.80;;;;;;;2.96;74.79;97440.13;6278194;22;20321;-78
2022/03/28 00:04:41;;;;;;;5.10;4.63;;;;;;;2.90;74.75;97440.63;6276596;22;20019;-78
2022/03/28 00:07:07;;;;;;;6.10;4.47;;;;;;;2.94;74.47;97441.22;6302516;22;20011;-77
2022/03/28 00:09:33;;;;;;;4.45;4.05;;;;;;;2.91;74.42;97443.13;6303072;22;20378;-77
2022/03/28 00:11:59;;;;;;;5.25;4.75;;;;;;;2.89;74.77;97438.94;6279565;22;20023;-78
2022/03/28 00:14:25;;;;;;;4.85;4.38;;;;;;;2.95;74.65;97445.53;6303848;22;20066;-77
2022/03/28 00:16:51;;;;;;;4.55;4.15;;;;;;;2.99;74.52;97445.16;6277813;22;20020;-76
2022/03/28 00:19:17;;;;;;;5.15;4.25;;;;;;;2.95;74.83;97443.72;6279490;22;20452;-76
2022/03/28 00:21:43;;;;;;;4.40;4.00;;;;;;;2.97;74.57;97441.81;6278623;22;20039;-76
2022/03/28 00:24:08;;;;;;;4.65;4.25;;;;;;;3.01;74.19;97437.97;6280511;22;20027;-77
2022/03/28 00:26:35;;;;;;;4.20;3.80;;;;;;;3.05;74.49;97435.94;6252790;22;20042;-78
2022/03/28 00:29:01;;;;;;;4.03;3.72;;;;;;;2.96;74.24;97437.47;6277568;22;20019;-78
2022/03/28 00:31:27;;;;;;;4.43;4.13;;;;;;;2.95;74.48;97440.25;6276482;22;20020;-78
2022/03/28 00:33:53;;;;;;;4.03;3.72;;;;;;;2.96;74.05;97426.91;6276591;22;20047;-78
2022/03/28 00:36:19;;;;;;;4.00;3.70;;;;;;;2.94;74.65;97430.66;6278126;22;20507;-78
2022/03/28 00:38:45;;;;;;;3.85;3.55;;;;;;;2.92;74.45;97433.41;6277975;22;20061;-77
2022/03/28 00:41:11;;;;;;;4.28;3.97;;;;;;;2.97;74.35;97425.97;6302125;22;20098;-77
2022/03/28 00:43:53;;;;;;;3.90;3.60;;;;;;;2.90;74.79;97435.34;6276852;22;20390;-77
2022/03/28 00:46:19;;;;;;;4.05;3.75;;;;;;;2.93;74.69;97440.34;6277472;22;20464;-77
2022/03/28 00:48:44;;;;;;;4.10;3.80;;;;;;;3.00;74.72;97435.44;6199967;22;20046;-77
2022/03/28 00:51:11;;;;;;;3.70;3.40;;;;;;;2.98;74.54;97434.75;6277640;22;20023;-78
2022/03/28 00:53:38;;;;;;;3.95;3.65;;;;;;;2.94;74.01;97426.22;6225772;22;20012;-76
2022/03/28 00:56:04;;;;;;;4.35;3.95;;;;;;;2.86;74.35;97423.34;6250318;22;20023;-76
2022/03/28 00:58:30;;;;;;;4.90;4.50;;;;;;;2.88;74.64;97427.53;6225255;22;20019;-77
2022/03/28 01:00:56;;;;;;;4.50;4.10;;;;;;;2.88;74.33;97416.97;6277211;22;20069;-76
2022/03/28 01:03:22;;;;;;;4.20;3.90;;;;;;;2.90;74.59;97424.78;6275985;22;20012;-76
2022/03/28 01:05:48;;;;;;;3.85;3.55;;;;;;;2.92;74.76;97413.13;6276892;22;20069;-76
2022/03/28 01:08:14;;;;;;;4.35;4.05;;;;;;;2.98;74.33;97411.81;6224846;22;20023;-77
2022/03/28 01:10:42;;;;;;;4.45;4.05;;;;;;;3.05;73.87;97414.81;6250049;22;20015;-76
2022/03/28 01:13:09;;;;;;;4.20;3.90;;;;;;;3.06;74.24;97414.69;6276039;22;20073;-77
2022/03/28 01:15:35;;;;;;;4.40;4.10;;;;;;;3.04;74.22;97411.31;6250241;22;20050;-77
2022/03/28 01:18:08;;;;;;;4.90;4.50;;;;;;;3.02;74.08;97413.25;6276969;22;20015;-76
2022/03/28 01:20:36;;;;;;;4.60;4.28;;;;;;;3.06;73.88;97412.03;6277154;22;20019;-76
2022/03/28 01:23:03;;;;;;;4.40;4.10;;;;;;;3.02;74.00;97402.69;6277236;22;20108;-76
2022/03/28 01:25:29;;;;;;;4.32;4.03;;;;;;;3.02;73.83;97413.25;6254447;22;20406;-76
2022/03/28 01:27:57;;;;;;;4.45;4.15;;;;;;;2.98;73.63;97417.09;6284244;22;20102;-76
2022/03/28 01:30:23;;;;;;;4.28;3.97;;;;;;;3.03;73.74;97422.84;6229164;22;20028;-78
2022/03/28 01:32:52;;;;;;;4.38;4.07;;;;;;;3.00;73.86;97415.16;6283688;22;20043;-77
2022/03/28 01:35:45;;;;;;;4.53;4.20;;;;;;;3.03;73.95;97414.09;6256635;22;20012;-76
2022/03/28 01:38:16;;;;;;;4.50;4.10;;;;;;;3.00;73.58;97414.31;6282938;22;20086;-76
2022/03/28 01:40:45;;;;;;;4.97;4.57;;;;;;;2.99;74.25;97424.03;6204352;22;20026;-77
2022/03/28 01:43:12;;;;;;;4.68;4.28;;;;;;;3.00;73.80;97430.16;6279524;22;20024;-77
2022/03/28 01:45:38;;;;;;;5.50;5.00;;;;;;;2.91;74.22;97432.56;6278205;22;20019;-76
2022/03/28 01:48:05;;;;;;;5.05;4.65;;;;;;;2.88;74.22;97427.53;6250916;22;20340;-76
2022/03/28 01:50:31;;;;;;;4.85;4.45;;;;;;;2.84;74.25;97435.81;6277423;22;20019;-78
2022/03/28 01:52:58;;;;;;;4.47;4.18;;;;;;;2.83;74.30;97434.16;6277277;22;20022;-77
2022/03/28 01:55:24;;;;;;;4.80;4.40;;;;;;;2.89;74.31;97425.72;6249460;22;20015;-77
2022/03/28 01:57:50;;;;;;;4.65;4.28;;;;;;;2.83;74.59;97431.50;6249830;22;20027;-77
2022/03/28 02:00:18;;;;;;;3.97;3.67;;;;;;;2.88;74.33;97432.81;6249527;22;20023;-76
2022/03/28 02:02:48;;;;;;;3.40;3.20;;;;;;;2.78;74.46;97434.50;6224852;22;20394;-77
2022/03/28 02:05:15;;;;;;;3.05;2.85;;;;;;;2.72;74.45;97434.16;6250289;22;20047;-76
2022/03/28 02:07:43;;;;;;;2.80;2.60;;;;;;;2.71;74.66;97429.81;6250087;22;20104;-77
2022/03/28 02:10:14;;;;;;;2.40;2.28;;;;;;;2.66;74.93;97433.66;6224678;22;20023;-77
2022/03/28 02:12:40;;;;;;;6.03;2.63;;;;;;;2.67;74.97;97432.72;6199639;22;20031;-77
2022/03/28 02:15:08;;;;;;;2.90;2.40;;;;;;;2.72;74.61;97444.72;6224164;22;20123;-76
2022/03/28 02:17:35;;;;;;;7.43;3.30;;;;;;;2.72;74.95;97447.34;6250349;22;20419;-77
2022/03/28 02:20:02;;;;;;;2.30;2.20;;;;;;;2.69;74.89;97445.78;6249473;22;20525;-77
2022/03/28 02:22:28;;;;;;;2.38;2.20;;;;;;;2.62;75.35;97463.03;6199555;22;20024;-76
2022/03/28 02:24:55;;;;;;;4.57;2.00;;;;;;;2.56;74.98;97440.63;6224135;22;20530;-77
2022/03/28 02:27:21;;;;;;;1.80;1.70;;;;;;;2.61;74.87;97445.53;6249628;22;20015;-76
2022/03/28 02:29:46;;;;;;;1.88;1.77;;;;;;;2.30;75.44;97457.63;6224177;22;20056;-77
2022/03/28 02:32:12;;;;;;;1.85;1.75;;;;;;;2.27;75.97;97453.41;6224117;22;20467;-78
2022/03/28 02:34:39;;;;;;;2.10;2.00;;;;;;;2.37;75.94;97454.41;6276833;22;20020;-77
2022/03/28 02:37:05;;;;;;;2.08;1.98;;;;;;;2.45;75.72;97460.88;6249329;22;20106;-77
2022/03/28 02:39:30;;;;;;;2.15;2.03;;;;;;;2.44;75.89;97465.28;6249201;22;20030;-78
2022/03/28 02:41:56;;;;;;;2.17;2.00;;;;;;;2.30;75.78;97473.44;6249676;22;20026;-78
2022/03/28 02:44:22;;;;;;;1.90;1.80;;;;;;;2.21;76.05;97474.13;6276172;22;20443;-76
2022/03/28 02:46:49;;;;;;;5.60;2.35;;;;;;;2.03;76.93;97477.22;6276269;22;20095;-77
2022/03/28 02:49:15;;;;;;;1.80;1.70;;;;;;;1.93;77.14;97471.78;6223306;22;20435;-77
2022/03/28 02:51:42;;;;;;;2.25;1.92;;;;;;;1.98;76.88;97481.97;6249681;22;20016;-77
2022/03/28 02:54:07;;;;;;;5.03;1.90;;;;;;;2.03;76.74;97482.50;6276071;22;20093;-76
2022/03/28 02:56:33;;;;;;;1.70;1.60;;;;;;;1.97;76.91;97493.47;6276066;22;20455;-77
2022/03/28 02:58:59;;;;;;;2.33;2.20;;;;;;;2.10;76.87;97499.50;6276237;22;20032;-75
2022/03/28 03:01:25;;;;;;;1.80;1.70;;;;;;;2.02;76.42;97501.88;6274842;22;20091;-77
2022/03/28 03:03:51;;;;;;;2.70;2.50;;;;;;;1.97;76.20;97495.28;6248835;22;20470;-77
2022/03/28 03:06:17;;;;;;;2.97;2.75;;;;;;;2.05;75.68;97512.19;6276139;22;20102;-77
2022/03/28 03:08:43;;;;;;;2.50;2.22;;;;;;;2.21;76.14;97509.25;6274646;22;20486;-83
2022/03/28 03:11:09;;;;;;;2.92;2.72;;;;;;;3.10;78.68;97505.84;6250011;22;20440;-81
2022/03/28 03:13:36;;;;;;;4.70;2.83;;;;;;;3.01;74.99;97500.44;6224057;22;20012;-78
2022/03/28 03:16:04;;;;;;;4.25;2.53;;;;;;;3.03;73.40;97514.38;6248973;22;20447;-77
2022/03/28 03:18:29;;;;;;;2.65;2.45;;;;;;;2.67;72.14;97527.69;6248822;22;20135;-77
2022/03/28 03:20:56;;;;;;;3.72;2.60;;;;;;;2.50;71.66;97528.13;6248886;22;20122;-77
2022/03/28 03:23:22;;;;;;;7.10;3.22;;;;;;;2.39;71.40;97530.75;6276079;22;20015;-77
2022/03/28 03:25:49;;;;;;;4.28;3.88;;;;;;;2.40;71.24;97533.25;6275706;22;20019;-77
2022/03/28 03:28:16;;;;;;;5.40;3.90;;;;;;;2.39;70.50;97542.13;6248941;22;20444;-76
2022/03/28 03:30:43;;;;;;;4.53;3.65;;;;;;;2.37;69.81;97533.50;6276435;22;20026;-77
2022/03/28 03:33:09;;;;;;;4.55;4.10;;;;;;;2.42;70.03;97539.25;6275412;22;20019;-80
2022/03/28 03:35:35;;;;;;;7.75;5.00;;;;;;;2.59;69.19;97539.75;6274673;22;20339;-78
2022/03/28 03:38:01;;;;;;;6.53;4.90;;;;;;;2.58;68.57;97541.56;6248433;22;20165;-77
2022/03/28 03:40:27;;;;;;;6.32;4.97;;;;;;;2.59;67.79;97542.41;6249026;22;20024;-78
2022/03/28 03:42:52;;;;;;;4.95;4.35;;;;;;;2.54;67.02;97560.38;6223825;22;20023;-78
2022/03/28 03:45:18;;;;;;;10.43;5.35;;;;;;;2.62;67.37;97558.84;6220803;22;20078;-77
2022/03/28 03:47:44;;;;;;;7.18;5.13;;;;;;;2.81;67.25;97562.72;6277583;22;20030;-76
2022/03/28 03:50:10;;;;;;;6.25;5.35;;;;;;;2.62;66.72;97564.13;6274794;22;20069;-79
2022/03/28 03:52:36;;;;;;;8.13;5.95;;;;;;;2.65;67.27;97571.81;6276003;22;20026;-79
2022/03/28 03:55:02;;;;;;;6.78;5.63;;;;;;;3.04;66.89;97574.13;6250532;22;20339;-78
2022/03/28 03:57:29;;;;;;;9.32;5.55;;;;;;;3.43;66.16;97574.63;6276110;22;20024;-79
2022/03/28 03:59:55;;;;;;;7.55;5.50;;;;;;;3.93;67.86;97582.94;6277901;22;20016;-78
2022/03/28 04:02:21;;;;;;;19.67;6.25;;;;;;;4.44;66.22;97572.53;6256701;22;20027;-77
2022/03/28 04:04:47;;;;;;;5.65;4.93;;;;;;;4.51;63.65;97583.41;6301126;22;20016;-77
2022/03/28 04:07:13;;;;;;;6.53;5.50;;;;;;;4.58;63.01;97582.78;6250103;22;20039;-76
2022/03/28 04:09:39;;;;;;;6.68;5.50;;;;;;;4.31;62.34;97595.66;6275806;22;20065;-75
2022/03/28 04:12:06;;;;;;;12.90;5.47;;;;;;;4.18;62.38;97581.78;6277217;22;20455;-75
2022/03/28 04:14:31;;;;;;;8.13;5.97;;;;;;;4.27;62.29;97583.66;6275851;22;20011;-76
2022/03/28 04:16:57;;;;;;;7.43;5.82;;;;;;;4.26;61.76;97600.50;6277478;22;20098;-77
2022/03/28 04:19:23;;;;;;;6.82;6.00;;;;;;;4.51;62.58;97594.00;6275114;22;20076;-78
2022/03/28 04:21:49;;;;;;;13.32;6.93;;;;;;;4.80;62.19;97602.16;6275804;22;20027;-81
2022/03/28 04:24:15;;;;;;;10.55;6.57;;;;;;;4.67;60.41;97585.63;6249987;22;20015;-79
2022/03/28 04:26:41;;;;;;;11.95;7.22;;;;;;;4.74;60.92;97608.81;6250756;22;20451;-78
2022/03/28 04:29:07;;;;;;;7.45;6.60;;;;;;;4.82;60.00;97619.59;6250183;22;20067;-76
2022/03/28 04:31:33;;;;;;;6.65;6.00;;;;;;;4.95;59.81;97611.44;6277262;22;20016;-78
2022/03/28 04:33:59;;;;;;;6.63;6.03;;;;;;;5.05;60.10;97620.28;6274123;22;20019;-76
2022/03/28 04:36:26;;;;;;;7.88;6.13;;;;;;;5.32;58.25;97621.53;6277031;22;20409;-80
2022/03/28 04:38:52;;;;;;;7.38;5.68;;;;;;;5.35;57.33;97631.88;6279261;22;20023;-77
2022/03/28 04:41:18;;;;;;;6.45;5.85;;;;;;;5.49;57.47;97618.28;6281584;22;20024;-78
2022/03/28 04:43:44;;;;;;;7.40;5.30;;;;;;;5.57;56.26;97610.50;6249864;22;20106;-77
2022/03/28 04:46:10;;;;;;;6.00;4.90;;;;;;;5.94;56.12;97623.22;6301206;22;20446;-76
2022/03/28 04:48:36;;;;;;;7.47;5.28;;;;;;;6.13;55.32;97632.16;6300860;22;20040;-78
2022/03/28 04:51:02;;;;;;;5.25;4.53;;;;;;;6.08;55.08;97633.41;6274665;22;20016;-79
2022/03/28 04:53:27;;;;;;;6.03;4.93;;;;;;;5.97;55.09;97638.84;6275449;22;20553;-79
2022/03/28 04:55:53;;;;;;;5.10;4.57;;;;;;;6.05;55.12;97641.63;6276328;22;20085;-78
2022/03/28 04:58:19;;;;;;;4.90;4.40;;;;;;;5.72;55.40;97645.44;6275066;22;20016;-79
2022/03/28 05:00:45;;;;;;;5.05;4.57;;;;;;;5.34;56.19;97646.09;6249871;22;20394;-81
2022/03/28 05:03:11;;;;;;;5.25;4.40;;;;;;;5.13;56.59;97654.06;6276753;22;20347;-79
2022/03/28 05:05:37;;;;;;;5.22;4.43;;;;;;;4.53;57.56;97651.13;6276332;22;20019;-76
2022/03/28 05:08:03;;;;;;;5.13;3.97;;;;;;;4.27;57.85;97665.66;6279247;22;20012;-80
2022/03/28 05:10:30;;;;;;;7.05;4.95;;;;;;;4.08;58.90;97661.84;6282378;22;20378;-75
2022/03/28 05:12:56;;;;;;;6.38;5.13;;;;;;;4.05;59.51;97667.38;6301319;22;20024;-79
2022/03/28 05:15:21;;;;;;;6.47;5.55;;;;;;;4.02;59.77;97667.59;6275618;22;20011;-80
2022/03/28 05:17:47;;;;;;;7.70;5.90;;;;;;;4.02;59.83;97672.91;6300978;22;20023;-81
2022/03/28 05:20:13;;;;;;;5.72;5.13;;;;;;;4.00;59.59;97680.13;6248717;22;20012;-82
2022/03/28 05:22:45;;;;;;;7.47;5.85;;;;;;;4.07;60.22;97664.63;6275971;22;20089;-79
2022/03/28 05:25:11;;;;;;;7.45;5.63;;;;;;;4.41;59.51;97665.38;6275139;22;20012;-81
2022/03/28 05:27:45;;;;;;;7.50;5.70;;;;;;;4.39;58.52;97672.56;6249932;22;20102;-79
2022/03/28 05:30:11;;;;;;;6.20;5.50;;;;;;;4.13;59.06;97679.97;6274436;22;20046;-80
2022/03/28 05:32:38;;;;;;;7.25;6.00;;;;;;;3.99;59.60;97683.75;6276066;22;20062;-79
2022/03/28 05:35:07;;;;;;;6.18;5.20;;;;;;;3.89;59.77;97691.53;6248683;22;20019;-79
2022/03/28 05:37:34;;;;;;;;;;;;;;;3.92;60.33;97697.56;6224843;22;20015;-79
2022/03/28 05:40:02;;;;;;;7.07;5.63;;;;;;;3.89;59.77;97696.00;6223712;22;19938;-81
2022/03/28 05:42:28;;;;;;;6.78;5.72;;;;;;;4.04;59.36;97697.41;6249535;22;20024;-80
2022/03/28 05:44:54;;;;;;;6.68;5.13;;;;;;;3.99;59.57;97704.06;6300103;22;20024;-81
2022/03/28 05:47:20;;;;;;;5.80;5.20;;;;;;;4.18;58.87;97698.13;6274365;22;20027;-78
2022/03/28 05:49:46;;;;;;;7.13;5.35;;;;;;;4.22;59.13;97715.44;6274582;22;20019;-80
2022/03/28 05:52:12;;;;;;;6.50;5.80;;;;;;;4.10;58.63;97701.41;6250099;22;20016;-78
2022/03/28 05:54:38;;;;;;;7.28;5.63;;;;;;;4.03;58.90;97711.63;6275005;22;20046;-79
2022/03/28 05:57:05;;;;;;;6.00;5.40;;;;;;;4.17;59.25;97713.13;6276910;22;20022;-79
2022/03/28 05:59:32;;;;;;;6.78;5.45;;;;;;;4.32;58.43;97711.06;6274861;22;20024;-80
2022/03/28 06:01:58;;;;;;;5.93;5.32;;;;;;;4.45;58.50;97706.47;6249020;22;20018;-78
2022/03/28 06:04:24;;;;;;;5.78;4.63;;;;;;;4.91;57.97;97715.94;6275421;22;20047;-77
2022/03/28 06:06:52;;;;;;;6.18;5.57;;;;;;;5.16;56.49;97716.53;6275214;22;20468;-78
2022/03/28 06:09:18;;;;;;;5.57;4.82;;;;;;;5.51;55.23;97717.03;6301119;22;20023;-78
2022/03/28 06:11:44;;;;;;;6.28;5.20;;;;;;;5.60;54.86;97723.34;6277074;22;20016;-77
2022/03/28 06:14:10;;;;;;;6.72;5.30;;;;;;;5.63;53.87;97716.97;6276780;22;20089;-77
2022/03/28 06:16:36;;;;;;;5.47;4.97;;;;;;;6.04;53.54;97721.38;6249618;22;20015;-77
2022/03/28 06:19:03;;;;;;;6.82;5.35;;;;;;;6.41;53.31;97721.63;6277116;22;20027;-77
2022/03/28 06:21:32;;;;;;;6.55;5.32;;;;;;;6.37;51.77;97725.53;6276792;22;20027;-79
2022/03/28 06:23:59;;;;;;;6.57;5.00;;;;;;;5.96;51.74;97719.38;6300669;22;20015;-79
2022/03/28 06:26:26;;;;;;;5.60;4.45;;;;;;;6.00;52.01;97718.13;6274985;22;20019;-77
2022/03/28 06:28:52;;;;;;;5.47;4.50;;;;;;;5.88;51.74;97719.19;6249589;22;20015;-79
2022/03/28 06:31:18;;;;;;;5.65;4.38;;;;;;;5.87;52.58;97732.56;6276905;22;20033;-79
2022/03/28 06:33:44;;;;;;;5.55;5.00;;;;;;;5.64;52.51;97727.41;6249421;22;20015;-80
2022/03/28 06:36:10;;;;;;;5.25;4.75;;;;;;;5.51;52.86;97742.69;6274774;22;20329;-79
2022/03/28 06:38:37;;;;;;;6.13;4.57;;;;;;;5.23;53.40;97731.78;6300461;22;20023;-78
2022/03/28 06:41:03;;;;;;;6.22;4.63;;;;;;;5.24;53.40;97740.56;6276603;22;20026;-80
2022/03/28 06:43:29;;;;;;;5.00;4.50;;;;;;;5.17;54.03;97747.34;6248909;22;20015;-79
2022/03/28 06:45:55;;;;;;;5.57;4.50;;;;;;;5.25;53.39;97747.56;6276157;22;20016;-78
2022/03/28 06:48:22;;;;;;;4.80;4.05;;;;;;;5.05;53.67;97751.88;6249538;22;20466;-79
2022/03/28 06:50:48;;;;;;;5.90;4.45;;;;;;;5.02;53.83;97752.94;6249150;22;20027;-79
2022/03/28 06:53:15;;;;;;;4.65;4.18;;;;;;;5.02;53.75;97757.41;6224043;22;20015;-78
2022/03/28 06:55:41;;;;;;;5.00;4.50;;;;;;;4.99;54.05;97762.97;6274648;22;20051;-78
2022/03/28 06:58:06;;;;;;;5.57;4.03;;;;;;;5.21;53.46;97764.66;6248796;22;20471;-79
2022/03/28 07:00:34;;;;;;;4.72;4.32;;;;;;;4.91;53.59;97762.75;6249827;22;20024;-78
2022/03/28 07:03:00;;;;;;;4.47;4.07;;;;;;;4.82;53.96;97767.84;6276362;22;20355;-77
2022/03/28 07:05:28;;;;;;;4.82;4.25;;;;;;;5.05;53.85;97758.00;6249476;22;20027;-78
2022/03/28 07:07:56;;;;;;;5.85;4.40;;;;;;;5.11;52.97;97768.09;6275479;22;20451;-79
2022/03/28 07:10:22;;;;;;;6.20;4.30;;;;;;;5.06;53.06;97764.13;6249055;22;20047;-78
2022/03/28 07:12:51;;;;;;;4.60;4.10;;;;;;;5.16;52.73;97764.22;6274868;22;20023;-78
2022/03/28 07:15:17;;;;;;;4.40;4.00;;;;;;;5.01;52.72;97772.47;6249352;22;20023;-77
2022/03/28 07:17:48;;;;;;;6.20;4.55;;;;;;;5.01;52.66;97783.06;6224080;22;20024;-79
2022/03/28 07:20:14;;;;;;;5.28;4.22;;;;;;;5.34;52.95;97773.25;6251244;22;20016;-78
2022/03/28 07:22:41;;;;;;;5.05;4.55;;;;;;;5.60;52.27;97771.94;6200664;22;20397;-78
2022/03/28 07:25:08;;;;;;;5.63;4.78;;;;;;;5.53;51.81;97773.41;6278072;22;20436;-81
2022/03/28 07:27:38;;;;;;;10.00;5.40;;;;;;;5.74;51.60;97765.44;6278155;22;20031;-79
2022/03/28 07:30:05;;;;;;;8.65;4.80;;;;;;;5.84;52.03;97773.44;6250752;22;20351;-78
2022/03/28 07:32:31;;;;;;;5.13;4.57;;;;;;;5.86;52.21;97774.16;6278314;22;20031;-78
2022/03/28 07:34:57;;;;;;;5.30;4.60;;;;;;;6.12;51.64;97776.41;6200898;22;20019;-78
2022/03/28 07:37:24;;;;;;;4.97;4.47;;;;;;;6.29;50.56;97781.09;6200542;22;20042;-78
2022/03/28 07:39:50;;;;;;;5.47;4.63;;;;;;;6.28;50.36;97779.38;6200680;22;20114;-77
2022/03/28 07:42:16;;;;;;;5.43;4.40;;;;;;;6.30;49.57;97777.44;6201103;22;20051;-79
2022/03/28 07:44:42;;;;;;;4.40;3.88;;;;;;;5.87;50.16;97775.84;6227175;22;20443;-79
2022/03/28 07:47:08;;;;;;;4.50;4.10;;;;;;;5.98;50.52;97773.16;6278214;22;20016;-78
2022/03/28 07:49:35;;;;;;;5.45;4.30;;;;;;;5.86;50.61;97782.09;6276351;22;20012;-78
2022/03/28 07:52:02;;;;;;;5.00;4.22;;;;;;;6.06;49.62;97791.88;6301761;22;20320;-79
2022/03/28 07:54:32;;;;;;;4.05;3.53;;;;;;;6.18;49.58;97794.44;6276357;22;20016;-77
2022/03/28 07:56:58;;;;;;;;;;;;;;;6.26;49.38;97797.28;6277472;22;20016;-78
2022/03/28 07:59:24;;;;;;;4.38;3.97;;;;;;;6.49;49.36;97801.41;6225680;22;19934;-78
2022/03/28 08:01:51;;;;;;;5.03;3.85;;;;;;;6.40;48.67;97799.56;6276964;22;20020;-80
2022/03/28 08:04:20;;;;;;;5.65;4.10;;;;;;;6.58;48.48;97805.06;6278502;22;20069;-77
2022/03/28 08:06:47;;;;;;;5.55;3.95;;;;;;;6.62;48.70;97803.84;6307024;22;20016;-79
2022/03/28 08:09:13;;;;;;;7.32;4.13;;;;;;;6.70;47.97;97811.13;6281109;22;20077;-79
2022/03/28 08:11:39;;;;;;;6.55;3.75;;;;;;;6.60;48.11;97815.56;6281959;22;20051;-79
2022/03/28 08:14:05;;;;;;;4.97;4.10;;;;;;;6.71;47.48;97802.16;6251578;22;20073;-78
2022/03/28 08:16:34;;;;;;;4.25;3.65;;;;;;;6.46;47.58;97812.28;6250665;22;20086;-79
2022/03/28 08:19:00;;;;;;;4.05;3.67;;;;;;;6.50;48.24;97820.81;6275715;22;20234;-78
2022/03/28 08:21:26;;;;;;;3.83;3.45;;;;;;;6.46;48.16;97814.09;6276403;22;20027;-78
2022/03/28 08:23:52;;;;;;;3.72;3.33;;;;;;;6.53;47.66;97805.47;6277712;22;20015;-79
2022/03/28 08:26:18;;;;;;;4.00;3.60;;;;;;;6.66;47.31;97812.38;6301676;22;20085;-78
2022/03/28 08:28:44;;;;;;;2.95;2.58;;;;;;;6.58;45.09;97820.97;6301941;22;20153;-78
2022/03/28 08:31:10;;;;;;;2.65;2.45;;;;;;;6.97;44.30;97827.25;6277153;22;20028;-79
2022/03/28 08:33:36;;;;;;;3.83;2.30;;;;;;;7.08;43.46;97825.44;6277751;22;20047;-79
2022/03/28 08:36:02;;;;;;;2.00;1.90;;;;;;;7.17;43.29;97813.97;6250206;22;20015;-79
2022/03/28 08:38:28;;;;;;;3.83;2.40;;;;;;;7.81;42.61;97829.34;6277484;22;20019;-81
2022/03/28 08:40:54;;;;;;;2.78;2.47;;;;;;;7.72;41.42;97822.22;6250021;22;20144;-79
2022/03/28 08:43:23;;;;;;;3.00;2.60;;;;;;;7.85;41.93;97819.25;6275930;22;20070;-79
2022/03/28 08:45:50;;;;;;;2.40;2.15;;;;;;;7.78;41.90;97813.66;6275553;22;20023;-80
2022/03/28 08:48:16;;;;;;;2.33;2.13;;;;;;;7.72;41.76;97819.56;6276065;22;20490;-78
2022/03/28 08:50:51;;;;;;;2.60;2.40;;;;;;;7.03;43.12;97821.38;6283666;22;20057;-82
2022/03/28 08:53:17;;;;;;;25.30;4.18;;;;;;;6.27;45.27;97822.81;6292768;22;20529;-80
2022/03/28 08:55:45;;;;;;;2.53;2.33;;;;;;;5.96;46.58;97821.97;6280675;22;20035;-80
2022/03/28 08:58:13;;;;;;;2.30;2.13;;;;;;;5.83;46.94;97824.81;6280635;22;20075;-79
2022/03/28 09:00:39;;;;;;;2.80;2.60;;;;;;;6.35;46.77;97823.00;6226585;22;20015;-79
2022/03/28 09:03:05;;;;;;;2.50;2.30;;;;;;;6.31;46.03;97821.59;6276105;22;20085;-79
2022/03/28 09:05:35;;;;;;;3.38;2.60;;;;;;;6.45;46.54;97826.53;6250469;22;20467;-80
2022/03/28 09:08:03;;;;;;;2.70;2.50;;;;;;;6.52;46.72;97824.19;6276290;22;20359;-79
2022/03/28 09:10:34;;;;;;;2.15;2.05;;;;;;;6.49;46.24;97830.59;6277509;22;20141;-80
2022/03/28 09:13:09;;;;;;;3.58;2.58;;;;;;;6.58;46.86;97828.94;6277568;22;20019;-78
2022/03/28 09:15:50;;;;;;;3.00;2.70;;;;;;;7.03;46.31;97832.00;6250434;22;20353;-79
2022/03/28 09:18:29;;;;;;;3.03;2.60;;;;;;;6.89;45.01;97835.06;6275592;22;20019;-78
2022/03/28 09:20:56;;;;;;;2.42;2.08;;;;;;;6.69;44.78;97841.28;6276459;22;20324;-78
2022/03/28 09:23:29;;;;;;;5.13;2.63;;;;;;;6.32;45.36;97841.88;6249847;22;20090;-79
2022/03/28 09:25:56;;;;;;;2.35;2.00;;;;;;;6.43;45.63;97844.44;6275587;22;20019;-80
2022/03/28 09:28:46;;;;;;;2.28;2.08;;;;;;;6.36;45.09;97840.63;6277206;22;20022;-80
2022/03/28 09:31:17;;;;;;;3.97;2.40;;;;;;;6.37;45.51;97844.94;6275933;22;20041;-79
2022/03/28 09:34:06;;;;;;;4.32;2.90;;;;;;;6.52;45.87;97851.56;6250380;22;20392;-80
2022/03/28 09:36:39;;;;;;;2.33;2.22;;;;;;;6.52;45.62;97846.25;6276700;22;20324;-79
2022/03/28 09:39:18;;;;;;;2.75;2.53;;;;;;;7.00;45.60;97850.88;6300760;22;20061;-79
2022/03/28 09:41:59;;;;;;;2.28;2.10;;;;;;;7.22;44.19;97843.63;6275773;22;20031;-79
2022/03/28 09:44:53;;;;;;;3.58;2.30;;;;;;;7.35;43.99;97862.81;6300769;22;20022;-79
2022/03/28 09:47:24;;;;;;;2.60;2.40;;;;;;;7.57;44.20;97863.53;6245995;22;20020;-80
2022/03/28 09:49:54;;;;;;;2.60;2.40;;;;;;;8.02;44.03;97859.28;6249824;22;20158;-79
2022/03/28 09:52:22;;;;;;;2.53;2.33;;;;;;;8.34;42.64;97860.72;6224881;22;20019;-79
2022/03/28 09:54:58;;;;;;;3.03;2.65;;;;;;;8.10;42.45;97865.72;6276560;22;20141;-81
2022/03/28 09:57:33;;;;;;;4.10;2.50;;;;;;;8.43;41.75;97862.56;6249531;22;20051;-81
2022/03/28 10:00:14;;;;;;;2.30;2.10;;;;;;;8.81;42.12;97855.41;6224604;22;20118;-79
2022/03/28 10:02:40;;;;;;;2.28;2.08;;;;;;;8.68;41.80;97865.53;6250081;22;20015;-81
2022/03/28 10:05:07;;;;;;;2.55;2.35;;;;;;;8.67;41.11;97866.53;6249162;22;20359;-80
2022/03/28 10:07:33;;;;;;;3.00;2.45;;;;;;;8.67;42.05;97861.22;6198537;22;20030;-80
2022/03/28 10:10:00;;;;;;;2.53;2.33;;;;;;;8.94;41.38;97866.53;6275049;22;20015;-79
2022/03/28 10:12:27;;;;;;;2.50;2.30;;;;;;;9.29;41.65;97864.94;6249542;22;20051;-79
2022/03/28 10:15:00;;;;;;;2.30;2.10;;;;;;;9.26;40.26;97873.22;6199103;22;20018;-81
2022/03/28 10:17:28;;;;;;;2.75;2.28;;;;;;;9.24;40.10;97864.53;6249504;22;20027;-80
2022/03/28 10:19:54;;;;;;;3.88;2.20;;;;;;;8.58;40.58;97867.44;6224033;22;20015;-80
2022/03/28 10:22:33;;;;;;;2.65;2.45;;;;;;;8.78;41.55;97869.00;6224255;22;20016;-80
2022/03/28 10:25:08;;;;;;;2.58;2.38;;;;;;;8.88;41.43;97872.47;6276562;22;20107;-81
2022/03/28 10:27:36;;;;;;;5.07;2.58;;;;;;;9.49;40.60;97866.47;6199400;22;20011;-81
2022/03/28 10:30:16;;;;;;;2.45;2.05;;;;;;;9.66;39.10;97872.78;6274577;22;20378;-80
2022/03/28 10:32:42;;;;;;;2.20;2.00;;;;;;;9.23;39.83;97874.38;6223835;22;20016;-80
2022/03/28 10:35:09;;;;;;;9.60;2.22;;;;;;;8.96;39.65;97837.91;6248838;22;20023;-80
2022/03/28 10:37:39;;;;;;;5.72;2.30;;;;;;;9.07;39.53;97878.69;6276575;22;20020;-80
2022/03/28 10:40:29;;;;;;;1.80;1.70;;;;;;;9.06;39.48;97871.66;6198885;22;20024;-79
2022/03/28 10:43:09;;;;;;;2.20;2.00;;;;;;;8.98;39.91;97873.25;6249340;22;20024;-82
2022/03/28 10:45:42;;;;;;;1.80;1.70;;;;;;;9.10;40.01;97881.03;6261567;22;20386;-81
2022/03/28 10:48:09;;;;;;;1.92;1.83;;;;;;;8.85;39.96;97878.09;6274685;22;20068;-81
2022/03/28 10:50:38;;;;;;;2.10;2.00;;;;;;;8.62;40.86;97876.81;6276314;22;20019;-82
2022/03/28 10:53:14;;;;;;;7.07;2.80;;;;;;;8.51;40.47;97877.81;6274867;22;20430;-80
2022/03/28 10:55:45;;;;;;;4.55;2.00;;;;;;;8.07;41.23;97877.47;6276097;22;20024;-80
2022/03/28 10:58:35;;;;;;;2.10;2.00;;;;;;;8.19;41.32;97889.63;6274636;22;20023;-81
2022/03/28 11:01:13;;;;;;;2.95;1.92;;;;;;;7.41;42.16;97880.00;6276256;22;20524;-81
2022/03/28 11:04:00;;;;;;;2.30;2.20;;;;;;;6.84;43.76;97902.81;6301129;22;20336;-83
2022/03/28 11:07:00;;;;;;;7.88;2.17;;;;;;;6.36;44.93;97899.00;6275076;22;20451;-83
2022/03/28 11:09:41;;;;;;;2.65;2.10;;;;;;;6.51;44.81;97903.00;6274326;22;20015;-80
2022/03/28 11:12:16;;;;;;;2.20;2.00;;;;;;;6.08;45.89;97906.66;6249123;22;20017;-78
2022/03/28 11:14:49;;;;;;;2.22;2.03;;;;;;;6.17;46.22;97913.00;6275946;22;20019;-81
2022/03/28 11:17:18;;;;;;;2.05;1.95;;;;;;;6.08;46.08;97911.94;6300586;22;20020;-82
2022/03/28 11:20:14;;;;;;;2.00;1.90;;;;;;;5.99;46.45;97907.44;6276247;22;20019;-82
2022/03/28 11:22:44;;;;;;;2.58;2.38;;;;;;;5.99;46.48;97920.69;6274189;22;20402;-81
2022/03/28 11:25:48;;;;;;;2.38;2.28;;;;;;;6.42;46.07;97919.69;6276231;22;20023;-82
2022/03/28 11:28:18;;;;;;;3.53;2.30;;;;;;;5.82;47.29;97918.56;6275847;22;20324;-80
2022/03/28 11:30:43;;;;;;;2.33;2.13;;;;;;;5.88;47.16;97910.13;6300230;22;20024;-82
2022/03/28 11:33:14;;;;;;;3.72;2.13;;;;;;;5.81;47.48;97919.53;6299802;22;20016;-82
2022/03/28 11:35:53;;;;;;;2.08;1.98;;;;;;;5.95;47.77;97926.41;6274003;22;20019;-82
2022/03/28 11:38:21;;;;;;;2.50;2.30;;;;;;;6.02;47.47;97933.72;6248400;22;20062;-81
2022/03/28 11:40:47;;;;;;;2.60;2.40;;;;;;;6.58;47.17;97927.16;6247487;22;20024;-79
2022/03/28 11:43:13;;;;;;;2.17;2.08;;;;;;;6.84;46.38;97919.59;6222109;22;20041;-82
2022/03/28 11:45:49;;;;;;;2.50;2.30;;;;;;;6.68;46.11;97937.84;6247306;22;20093;-81
2022/03/28 11:48:19;;;;;;;2.55;2.40;;;;;;;6.29;46.50;97940.31;6212248;23;20051;-81